Time;durP1;ratioP1;P1;durP2;ratioP2;P2;SDS_P1;SDS_P2;PMS_P1;PMS_P2;Temp;Humidity;BMP_temperature;BMP_pressure;BME280_temperature;BME280_humidity;BME280_pressure;Samples;Min_cycle;Max_cycle;Signal;HPM_P1;HPM_P2
2022/08/07 00:00:33;;;;;;;3.20;2.10;;;;;;;15.31;76.43;100518.69;5015100;28;20040;-84
2022/08/07 00:02:59;;;;;;;6.68;2.22;;;;;;;15.28;76.40;100516.22;5015079;28;20029;-84
2022/08/07 00:05:27;;;;;;;8.63;2.33;;;;;;;15.28;76.60;100523.25;5032469;28;20080;-84
2022/08/07 00:07:53;;;;;;;3.47;2.10;;;;;;;15.25;76.76;100526.88;5014932;28;20025;-83
2022/08/07 00:10:19;;;;;;;2.95;1.90;;;;;;;15.22;76.97;100530.53;5014171;28;20025;-84
2022/08/07 00:12:45;;;;;;;4.82;2.28;;;;;;;15.20;77.03;100529.75;5014695;28;20021;-84
2022/08/07 00:15:11;;;;;;;3.10;1.90;;;;;;;15.12;77.37;100521.41;5014679;28;20033;-83
2022/08/07 00:17:36;;;;;;;6.20;2.00;;;;;;;15.17;77.39;100537.81;5014833;28;20485;-84
2022/08/07 00:20:04;;;;;;;5.93;2.08;;;;;;;15.16;77.34;100543.09;5014641;28;20028;-84
2022/08/07 00:22:29;;;;;;;4.78;2.20;;;;;;;15.10;77.36;100528.53;5014270;28;20109;-84
2022/08/07 00:24:54;;;;;;;3.10;1.75;;;;;;;15.10;77.45;100525.06;5014597;28;20124;-84
2022/08/07 00:27:20;;;;;;;5.82;2.35;;;;;;;15.02;77.28;100517.59;5014246;28;20032;-83
2022/08/07 00:29:45;;;;;;;3.03;2.03;;;;;;;15.10;77.53;100531.16;5014578;28;20079;-82
2022/08/07 00:32:12;;;;;;;3.08;2.00;;;;;;;15.07;77.17;100528.69;5014304;28;20508;-83
2022/08/07 00:34:38;;;;;;;5.70;2.17;;;;;;;15.08;77.35;100530.38;5014561;28;20503;-82
2022/08/07 00:37:04;;;;;;;3.33;2.10;;;;;;;15.03;77.16;100507.94;5014441;28;20021;-84
2022/08/07 00:39:29;;;;;;;5.32;2.30;;;;;;;15.10;77.06;100523.28;5014127;28;20489;-84
2022/08/07 00:41:57;;;;;;;6.97;1.95;;;;;;;15.10;76.91;100517.19;5030990;28;20026;-83
2022/08/07 00:44:23;;;;;;;5.35;2.40;;;;;;;15.03;76.90;100506.16;5031953;28;20101;-85
2022/08/07 00:46:49;;;;;;;3.58;2.22;;;;;;;15.09;76.78;100524.22;5032133;28;20506;-84
2022/08/07 00:49:15;;;;;;;7.22;1.92;;;;;;;14.96;76.74;100492.53;5014002;28;20033;-83
2022/08/07 00:51:41;;;;;;;4.55;2.20;;;;;;;15.07;76.53;100506.84;5009626;28;20069;-84
2022/08/07 00:54:07;;;;;;;3.53;2.38;;;;;;;15.03;76.86;100500.91;5009612;28;20145;-85
2022/08/07 00:56:33;;;;;;;3.88;1.90;;;;;;;15.02;76.99;100501.84;4993325;28;20400;-84
2022/08/07 00:58:59;;;;;;;5.47;1.92;;;;;;;14.99;76.74;100504.63;5009786;28;20034;-83
2022/08/07 01:01:25;;;;;;;4.72;2.15;;;;;;;15.06;76.58;100510.41;4992996;28;20049;-82
2022/08/07 01:03:51;;;;;;;4.55;2.15;;;;;;;15.05;76.44;100506.94;4993255;28;20037;-83
2022/08/07 01:06:17;;;;;;;5.35;1.98;;;;;;;15.05;76.56;100503.47;5009179;28;20077;-83
2022/08/07 01:08:44;;;;;;;4.43;1.95;;;;;;;15.03;76.81;100505.31;4993232;28;20030;-84
2022/08/07 01:11:10;;;;;;;3.63;2.13;;;;;;;15.00;76.67;100503.72;5009084;28;20473;-83
2022/08/07 01:13:35;;;;;;;3.85;2.00;;;;;;;14.99;76.63;100502.00;4993142;28;20030;-83
2022/08/07 01:16:02;;;;;;;3.72;2.20;;;;;;;14.97;77.01;100502.09;5009619;28;20089;-82
2022/08/07 01:18:28;;;;;;;3.22;2.15;;;;;;;14.96;77.38;100517.91;4993046;28;20518;-82
2022/08/07 01:21:23;;;;;;;4.70;2.00;;;;;;;14.92;77.63;100525.09;4993097;28;20033;-83
2022/08/07 01:23:50;;;;;;;3.90;2.10;;;;;;;14.89;78.04;100530.47;4973944;28;20042;-81
2022/08/07 01:26:17;;;;;;;4.82;2.50;;;;;;;14.86;77.87;100530.63;4974239;28;20042;-82
2022/08/07 01:28:44;;;;;;;7.72;2.28;;;;;;;14.78;78.58;100517.03;4974234;28;20034;-82
2022/08/07 01:31:10;;;;;;;2.47;2.10;;;;;;;14.77;78.50;100523.22;4957833;28;20158;-82
2022/08/07 01:33:36;;;;;;;5.30;2.00;;;;;;;14.73;78.76;100519.06;4957994;28;20438;-82
2022/08/07 01:36:03;;;;;;;3.25;2.00;;;;;;;14.59;79.28;100500.53;4974337;28;20093;-82
2022/08/07 01:38:29;;;;;;;3.05;1.95;;;;;;;14.66;79.83;100522.91;4973823;28;20391;-82
2022/08/07 01:40:58;;;;;;;10.75;2.33;;;;;;;14.60;80.10;100520.59;4957913;28;20070;-82
2022/08/07 01:43:25;;;;;;;4.43;2.20;;;;;;;14.54;80.24;100523.50;4957625;28;20486;-82
2022/08/07 01:45:51;;;;;;;4.10;2.30;;;;;;;14.48;80.57;100525.50;4957843;28;20042;-82
2022/08/07 01:48:17;;;;;;;5.05;2.38;;;;;;;14.42;80.96;100523.16;4957550;28;20114;-82
2022/08/07 01:50:45;;;;;;;3.08;2.10;;;;;;;14.39;81.11;100523.28;4957743;28;20121;-82
2022/08/07 01:53:13;;;;;;;3.78;2.03;;;;;;;14.32;81.23;100514.03;4957563;28;20046;-82
2022/08/07 01:55:44;;;;;;;3.33;2.33;;;;;;;14.31;81.19;100516.72;4957681;28;20038;-82
2022/08/07 01:58:12;;;;;;;3.15;2.10;;;;;;;14.29;81.35;100513.34;4957607;28;20034;-82
2022/08/07 02:00:41;;;;;;;4.07;2.10;;;;;;;14.21;81.26;100508.47;4998568;28;20392;-81
2022/08/07 02:03:11;;;;;;;2.85;2.20;;;;;;;14.26;81.30;100522.19;5017062;28;20080;-81
2022/08/07 02:05:45;;;;;;;3.63;2.08;;;;;;;14.22;81.48;100524.09;5034902;28;20053;-81
2022/08/07 02:08:16;;;;;;;7.78;2.28;;;;;;;14.23;81.79;100517.09;5035019;28;20021;-81
2022/08/07 02:10:44;;;;;;;3.45;2.40;;;;;;;14.21;81.70;100521.56;5034798;28;20030;-81
2022/08/07 02:13:11;;;;;;;3.42;2.15;;;;;;;14.21;81.66;100517.19;5035032;28;20032;-81
2022/08/07 02:15:38;;;;;;;3.45;2.40;;;;;;;14.18;81.61;100516.47;5034415;28;20385;-81
2022/08/07 02:18:09;;;;;;;5.05;2.58;;;;;;;14.17;81.56;100520.03;5017029;28;20029;-81
2022/08/07 02:20:34;;;;;;;3.97;2.13;;;;;;;14.16;81.69;100513.09;5034782;28;20052;-81
2022/08/07 02:23:03;;;;;;;4.10;2.47;;;;;;;14.17;81.92;100526.09;5034989;28;20470;-81
2022/08/07 02:25:31;;;;;;;5.75;2.58;;;;;;;14.10;81.85;100505.50;5034350;28;20030;-81
2022/08/07 02:27:59;;;;;;;5.47;2.78;;;;;;;14.14;81.89;100526.25;5034494;28;20029;-81
2022/08/07 02:30:25;;;;;;;4.05;2.33;;;;;;;14.06;82.31;100520.50;5016643;28;20029;-81
2022/08/07 02:32:53;;;;;;;3.22;2.10;;;;;;;14.07;81.83;100519.59;5016624;28;20029;-81
2022/08/07 02:35:19;;;;;;;3.17;2.30;;;;;;;14.05;82.30;100521.44;5016537;28;20025;-81
2022/08/07 02:37:46;;;;;;;6.93;2.78;;;;;;;14.06;82.33;100523.13;5034519;28;20018;-81
2022/08/07 02:40:12;;;;;;;3.17;2.28;;;;;;;14.07;82.37;100518.75;5016574;28;20052;-81
2022/08/07 02:42:39;;;;;;;3.65;2.10;;;;;;;14.04;82.98;100517.13;5034252;28;20089;-81
2022/08/07 02:45:07;;;;;;;7.28;2.25;;;;;;;14.02;82.53;100516.34;5016578;28;20119;-80
2022/08/07 02:47:32;;;;;;;4.53;2.75;;;;;;;14.04;82.08;100525.00;5034234;28;20060;-81
2022/08/07 02:49:58;;;;;;;5.68;2.90;;;;;;;14.02;81.57;100511.09;5016278;28;20057;-82
2022/08/07 02:52:37;;;;;;;6.70;2.50;;;;;;;14.12;81.25;100520.25;5033847;28;20033;-82
2022/08/07 02:55:10;;;;;;;3.30;2.08;;;;;;;14.14;80.97;100515.75;5033946;28;20374;-82
2022/08/07 02:57:39;;;;;;;5.70;2.58;;;;;;;14.10;81.02;100516.84;5016080;28;20056;-83
2022/08/07 03:00:06;;;;;;;6.20;2.38;;;;;;;14.13;80.40;100513.22;5033955;28;20037;-83
2022/08/07 03:02:35;;;;;;;4.30;1.98;;;;;;;14.15;80.42;100516.59;5015707;28;20030;-83
2022/08/07 03:05:02;;;;;;;5.47;2.17;;;;;;;14.15;80.30;100521.84;5015942;28;20551;-83
2022/08/07 03:07:29;;;;;;;5.03;2.33;;;;;;;14.12;79.91;100504.53;5015699;28;20481;-82
2022/08/07 03:09:55;;;;;;;3.47;1.90;;;;;;;14.19;79.83;100520.78;5016060;28;20029;-83
2022/08/07 03:12:20;;;;;;;6.95;2.38;;;;;;;14.13;79.45;100500.97;5015759;28;20393;-83
2022/08/07 03:14:46;;;;;;;5.68;2.20;;;;;;;14.19;79.50;100515.53;4991677;28;20438;-83
2022/08/07 03:17:11;;;;;;;3.25;2.00;;;;;;;14.22;79.20;100512.78;4991665;28;20126;-83
2022/08/07 03:19:38;;;;;;;5.22;2.45;;;;;;;14.27;78.95;100526.50;4991361;28;20062;-83
2022/08/07 03:22:05;;;;;;;4.15;2.10;;;;;;;14.19;79.06;100497.19;4991587;28;20026;-83
2022/08/07 03:24:31;;;;;;;9.23;2.20;;;;;;;14.18;79.16;100498.97;4991413;28;20077;-83
2022/08/07 03:27:00;;;;;;;2.90;2.00;;;;;;;14.28;78.93;100515.09;4991722;28;20034;-83
2022/08/07 03:29:33;;;;;;;2.25;1.90;;;;;;;14.22;78.55;100502.31;4991269;28;20038;-83
2022/08/07 03:32:03;;;;;;;3.63;2.10;;;;;;;14.21;78.41;100498.84;4991411;28;20457;-83
2022/08/07 03:34:30;;;;;;;3.70;2.38;;;;;;;14.24;78.53;100500.44;4991108;28;20409;-83
2022/08/07 03:36:56;;;;;;;5.97;2.35;;;;;;;14.29;78.71;100506.34;4991327;28;20034;-83
2022/08/07 03:39:24;;;;;;;3.17;2.05;;;;;;;14.21;79.15;100500.63;4990943;28;20061;-83
2022/08/07 03:41:50;;;;;;;3.88;1.95;;;;;;;14.17;79.40;100501.69;4991385;28;20034;-84
2022/08/07 03:44:15;;;;;;;4.50;2.08;;;;;;;14.25;79.41;100517.03;4990583;28;20030;-84
2022/08/07 03:46:41;;;;;;;3.25;2.05;;;;;;;14.23;79.59;100511.84;5027854;28;20044;-83
2022/08/07 03:49:08;;;;;;;4.32;2.30;;;;;;;14.20;79.84;100523.34;5033062;28;20044;-83
2022/08/07 03:51:34;;;;;;;2.80;1.92;;;;;;;14.15;80.05;100509.59;5014898;28;20022;-83
2022/08/07 03:54:00;;;;;;;3.88;2.20;;;;;;;14.15;80.59;100509.59;5015315;28;20026;-83
2022/08/07 03:56:26;;;;;;;5.55;2.45;;;;;;;14.11;80.83;100505.41;5015028;28;20378;-83
2022/08/07 03:58:52;;;;;;;4.38;2.42;;;;;;;14.17;80.81;100522.63;5033148;28;20034;-84
2022/08/07 04:01:19;;;;;;;3.00;2.30;;;;;;;14.20;81.21;100527.75;5032671;28;20037;-83
2022/08/07 04:03:45;;;;;;;5.47;2.35;;;;;;;14.22;81.49;100518.03;5014847;28;20025;-84
2022/08/07 04:06:11;;;;;;;3.90;2.40;;;;;;;14.22;81.49;100502.31;5014779;28;20111;-83
2022/08/07 04:08:43;;;;;;;4.45;2.35;;;;;;;14.45;81.42;100528.25;5014804;28;20432;-83
2022/08/07 04:11:09;;;;;;;5.20;2.30;;;;;;;14.70;80.40;100520.03;5014866;28;20103;-84
2022/08/07 04:13:35;;;;;;;5.95;2.30;;;;;;;15.15;79.46;100526.53;5014591;28;20576;-84
2022/08/07 04:16:01;;;;;;;3.83;2.33;;;;;;;15.55;77.70;100521.81;4990520;28;20049;-84
2022/08/07 04:18:26;;;;;;;3.45;2.38;;;;;;;15.86;76.47;100515.78;4974062;28;20038;-84
2022/08/07 04:20:52;;;;;;;2.40;2.03;;;;;;;16.25;75.19;100530.25;4974163;28;20042;-84
2022/08/07 04:23:18;;;;;;;2.97;2.10;;;;;;;16.84;72.90;100533.06;4974294;28;20496;-84
2022/08/07 04:25:44;;;;;;;6.85;2.65;;;;;;;17.54;70.39;100515.69;4974118;28;20506;-84
2022/08/07 04:28:11;;;;;;;3.97;2.30;;;;;;;18.27;67.57;100531.28;4990522;28;20117;-84
2022/08/07 04:30:37;;;;;;;3.95;2.00;;;;;;;18.57;65.96;100523.16;4990302;28;20108;-84
2022/08/07 04:33:08;;;;;;;3.90;2.13;;;;;;;18.65;65.69;100535.84;4990288;28;20126;-84
2022/08/07 04:35:35;;;;;;;4.93;2.15;;;;;;;18.65;64.71;100526.16;4990212;28;20532;-84
2022/08/07 04:38:06;;;;;;;2.72;2.08;;;;;;;18.83;64.75;100534.66;4974137;28;20504;-83
2022/08/07 04:40:32;;;;;;;4.65;1.98;;;;;;;19.00;64.00;100528.25;4973854;28;20050;-83
2022/08/07 04:42:58;;;;;;;5.70;1.85;;;;;;;19.19;63.64;100526.06;4973960;28;20030;-84
2022/08/07 04:45:30;;;;;;;6.60;2.25;;;;;;;19.81;62.27;100529.75;4973628;28;20034;-83
2022/08/07 04:48:06;;;;;;;6.95;2.22;;;;;;;20.92;59.43;100510.09;4974004;28;20479;-83
2022/08/07 04:50:52;;;;;;;3.03;2.20;;;;;;;21.83;56.72;100538.41;4989979;28;20030;-83
2022/08/07 04:53:30;;;;;;;2.40;2.00;;;;;;;21.93;57.00;100536.69;5008144;28;20049;-83
2022/08/07 04:56:10;;;;;;;4.13;2.95;;;;;;;21.44;57.95;100545.84;5014128;28;20037;-83
2022/08/07 04:59:07;;;;;;;6.90;2.47;;;;;;;20.90;59.28;100551.75;5014238;28;20022;-83
2022/08/07 05:01:42;;;;;;;3.78;2.30;;;;;;;20.69;60.85;100556.84;5014005;28;20041;-83
2022/08/07 05:04:19;;;;;;;4.45;2.20;;;;;;;20.54;61.80;100563.28;5031855;28;20127;-83
2022/08/07 05:06:47;;;;;;;5.05;2.47;;;;;;;20.66;61.99;100568.50;5031967;28;20455;-83
2022/08/07 05:09:21;;;;;;;3.38;2.25;;;;;;;21.68;59.70;100573.09;5014477;28;20029;-83
2022/08/07 05:11:50;;;;;;;4.07;2.50;;;;;;;22.94;56.48;100564.78;5013902;28;20500;-83
2022/08/07 05:14:32;;;;;;;5.63;2.45;;;;;;;23.47;54.49;100576.19;5032078;28;20045;-83
2022/08/07 05:17:01;;;;;;;5.15;2.65;;;;;;;22.85;55.56;100575.19;5031946;28;20384;-83
2022/08/07 05:19:33;;;;;;;4.20;2.30;;;;;;;22.58;56.35;100577.44;5031474;28;20121;-84
2022/08/07 05:22:00;;;;;;;2.40;2.00;;;;;;;22.39;56.71;100573.66;5014001;28;20030;-81
2022/08/07 05:24:28;;;;;;;5.13;2.58;;;;;;;22.35;56.56;100566.91;5013736;28;20120;-83
2022/08/07 05:26:56;;;;;;;3.00;2.25;;;;;;;22.27;56.85;100571.16;5013885;28;20079;-82
2022/08/07 05:29:22;;;;;;;4.20;2.28;;;;;;;23.23;55.38;100576.44;5031762;28;20033;-83
2022/08/07 05:31:50;;;;;;;6.72;2.60;;;;;;;24.87;51.30;100559.31;5031835;28;20040;-83
2022/08/07 05:34:17;;;;;;;5.45;2.40;;;;;;;25.57;48.23;100568.72;5013991;28;20022;-84
2022/08/07 05:36:46;;;;;;;6.30;2.63;;;;;;;24.93;48.91;100568.56;5013641;28;20029;-84
2022/08/07 05:39:13;;;;;;;3.80;2.33;;;;;;;24.22;49.79;100574.09;5013783;28;20025;-84
2022/08/07 05:41:41;;;;;;;3.85;2.38;;;;;;;23.78;50.83;100566.41;5031222;28;20039;-84
2022/08/07 05:44:08;;;;;;;3.13;2.22;;;;;;;23.61;50.95;100554.53;5031384;28;20033;-84
2022/08/07 05:46:36;;;;;;;3.00;2.00;;;;;;;23.58;51.56;100559.28;5031635;28;20037;-81
2022/08/07 05:49:05;;;;;;;3.05;2.17;;;;;;;24.51;47.72;100574.19;5031560;28;20028;-80
2022/08/07 05:51:30;;;;;;;7.63;2.50;;;;;;;25.69;46.15;100569.41;5031225;28;20057;-81
2022/08/07 05:53:55;;;;;;;5.72;2.20;;;;;;;26.28;44.48;100575.31;5030126;28;20064;-81
2022/08/07 05:56:23;;;;;;;3.85;2.03;;;;;;;25.39;45.17;100573.16;5031280;28;20088;-80
2022/08/07 05:58:49;;;;;;;2.20;2.00;;;;;;;24.45;46.90;100578.25;5031110;28;20022;-84
2022/08/07 06:01:16;;;;;;;4.93;2.03;;;;;;;24.12;48.16;100571.41;5013731;28;20448;-83
2022/08/07 06:03:47;;;;;;;3.85;2.17;;;;;;;24.04;49.01;100563.28;5013455;28;20022;-84
2022/08/07 06:06:14;;;;;;;2.83;1.65;;;;;;;24.28;48.66;100584.22;5013506;28;20137;-84
2022/08/07 06:08:40;;;;;;;3.75;2.15;;;;;;;24.91;47.72;100586.53;5015541;28;20060;-83
2022/08/07 06:11:07;;;;;;;3.65;2.00;;;;;;;25.00;47.20;100567.03;5016848;28;20116;-84
2022/08/07 06:13:32;;;;;;;2.88;1.80;;;;;;;24.79;47.31;100573.34;5017016;28;20022;-84
2022/08/07 06:16:00;;;;;;;4.78;2.10;;;;;;;24.47;47.84;100586.09;5016878;28;20032;-84
2022/08/07 06:18:26;;;;;;;4.95;1.90;;;;;;;24.29;48.90;100573.41;5017002;28;20030;-84
2022/08/07 06:20:52;;;;;;;3.60;2.30;;;;;;;24.22;48.54;100582.91;5016645;28;20033;-84
2022/08/07 06:23:18;;;;;;;3.00;1.80;;;;;;;24.49;47.68;100586.81;5016899;28;20388;-84
2022/08/07 06:25:44;;;;;;;3.88;1.70;;;;;;;24.27;47.56;100579.84;5040845;28;20033;-84
2022/08/07 06:28:09;;;;;;;5.03;1.95;;;;;;;24.38;47.29;100580.59;5036712;28;20503;-84
2022/08/07 06:30:36;;;;;;;4.97;1.92;;;;;;;24.83;47.29;100577.41;5054204;28;20033;-84
2022/08/07 06:33:03;;;;;;;3.20;1.90;;;;;;;25.14;44.69;100585.28;5036616;28;20511;-84
2022/08/07 06:35:28;;;;;;;2.10;1.80;;;;;;;25.12;44.54;100585.44;5054379;28;20480;-83
2022/08/07 06:37:55;;;;;;;2.08;1.70;;;;;;;25.30;44.09;100585.53;5036017;28;20036;-84
2022/08/07 06:40:20;;;;;;;5.32;1.80;;;;;;;25.64;44.34;100593.00;5036470;28;20106;-84
2022/08/07 06:42:48;;;;;;;2.22;1.80;;;;;;;26.05;43.99;100593.56;5054380;28;20037;-84
2022/08/07 06:45:16;;;;;;;2.90;1.50;;;;;;;26.89;42.39;100592.47;5036330;28;20118;-84
2022/08/07 06:47:42;;;;;;;4.10;1.80;;;;;;;27.94;39.66;100589.69;5053846;28;20032;-84
2022/08/07 06:50:09;;;;;;;2.40;1.73;;;;;;;31.14;35.46;100591.53;5036016;28;20440;-84
2022/08/07 06:52:36;;;;;;;3.25;1.52;;;;;;;33.90;30.90;100589.53;5035789;28;20119;-84
2022/08/07 06:55:28;;;;;;;2.65;1.63;;;;;;;35.90;28.24;100592.22;5036182;28;20115;-84
2022/08/07 06:57:58;;;;;;;3.53;1.30;;;;;;;35.96;27.10;100593.22;5053147;28;20047;-84
2022/08/07 07:00:24;;;;;;;4.72;1.70;;;;;;;36.78;26.52;100590.69;5035961;28;20040;-82
2022/08/07 07:02:51;;;;;;;2.38;1.52;;;;;;;38.69;24.51;100586.91;5035682;28;20037;-84
2022/08/07 07:05:19;;;;;;;8.30;2.17;;;;;;;39.92;23.07;100579.66;5035581;28;20053;-83
2022/08/07 07:07:45;;;;;;;2.13;1.50;;;;;;;40.48;22.42;100594.38;5053654;28;20036;-83
2022/08/07 07:10:12;;;;;;;3.17;1.70;;;;;;;41.26;21.99;100589.13;5035704;28;20362;-83
2022/08/07 07:12:44;;;;;;;2.47;1.55;;;;;;;42.17;20.89;100581.25;5035502;28;20029;-83
2022/08/07 07:15:23;;;;;;;2.45;1.50;;;;;;;43.08;20.46;100588.69;5035679;28;20033;-84
2022/08/07 07:17:58;;;;;;;2.75;1.55;;;;;;;44.67;18.70;100582.72;5053322;28;20114;-84
2022/08/07 07:20:42;;;;;;;2.08;1.40;;;;;;;44.94;18.19;100578.81;5052413;28;20109;-83
2022/08/07 07:23:09;;;;;;;2.80;1.48;;;;;;;44.52;18.27;100579.94;5035538;28;20052;-83
2022/08/07 07:25:38;;;;;;;2.10;1.40;;;;;;;44.18;18.22;100583.16;5035337;28;20361;-84
2022/08/07 07:28:13;;;;;;;4.15;1.52;;;;;;;42.91;19.53;100574.28;5035286;28;20025;-84
2022/08/07 07:30:44;;;;;;;5.82;1.70;;;;;;;41.29;19.94;100574.94;5035238;28;20096;-84
2022/08/07 07:33:12;;;;;;;2.47;1.50;;;;;;;41.84;20.22;100565.84;5035307;28;20500;-83
2022/08/07 07:35:44;;;;;;;1.60;1.45;;;;;;;42.80;18.82;100557.78;5035207;28;20029;-83
2022/08/07 07:38:12;;;;;;;1.85;1.55;;;;;;;43.47;19.51;100571.94;5035235;28;20480;-83
2022/08/07 07:40:40;;;;;;;2.83;1.65;;;;;;;44.79;18.20;100568.66;5034753;28;20067;-84
2022/08/07 07:43:06;;;;;;;3.25;1.65;;;;;;;43.04;19.40;100566.47;5035172;28;20048;-83
2022/08/07 07:45:31;;;;;;;2.22;1.50;;;;;;;43.63;18.80;100559.09;5035022;28;20035;-83
2022/08/07 07:47:58;;;;;;;3.08;1.98;;;;;;;44.58;18.02;100554.91;5034706;28;20400;-83
2022/08/07 07:50:26;;;;;;;2.95;1.58;;;;;;;44.00;18.23;100569.97;5034806;28;20427;-83
2022/08/07 07:52:52;;;;;;;2.25;1.40;;;;;;;44.60;18.10;100560.13;5034445;28;20021;-83
2022/08/07 07:55:19;;;;;;;3.15;1.70;;;;;;;45.69;17.32;100556.91;5034899;28;20115;-83
2022/08/07 07:57:49;;;;;;;1.70;1.40;;;;;;;45.16;17.59;100559.28;5052570;28;20076;-83
2022/08/07 08:00:17;;;;;;;5.97;1.67;;;;;;;45.24;17.35;100553.19;5052651;28;20037;-83
2022/08/07 08:02:45;;;;;;;1.63;1.50;;;;;;;45.61;16.92;100563.81;5034428;28;20028;-83
2022/08/07 08:05:12;;;;;;;1.85;1.67;;;;;;;45.25;17.35;100552.91;5034353;28;20476;-83
2022/08/07 08:07:39;;;;;;;3.53;1.83;;;;;;;45.83;17.30;100562.63;5034273;28;20024;-83
2022/08/07 08:10:07;;;;;;;1.65;1.50;;;;;;;44.79;17.91;100554.91;5034643;28;20033;-83
2022/08/07 08:12:33;;;;;;;4.55;1.80;;;;;;;46.35;17.37;100570.28;5034521;28;20032;-84
2022/08/07 08:15:00;;;;;;;1.70;1.60;;;;;;;45.20;17.47;100557.63;5052117;28;20036;-84
2022/08/07 08:17:27;;;;;;;1.45;1.27;;;;;;;45.43;17.44;100562.53;5034321;28;20052;-83
2022/08/07 08:19:57;;;;;;;1.52;1.30;;;;;;;45.66;16.97;100562.97;5052091;28;20063;-84
2022/08/07 08:27:57;;;;;;;3.92;2.00;;;;;;;38.23;21.74;100550.28;5030029;28;20574;-83
2022/08/07 08:30:24;;;;;;;3.60;1.85;;;;;;;38.68;22.22;100545.22;5012821;28;20553;-82
2022/08/07 08:32:52;;;;;;;1.63;1.50;;;;;;;40.89;20.79;100559.56;5011549;28;20067;-83
2022/08/07 08:35:22;;;;;;;2.47;1.85;;;;;;;38.99;22.59;100556.06;5028370;28;20480;-82
2022/08/07 08:37:50;;;;;;;2.10;1.70;;;;;;;34.99;26.12;100556.97;5027996;28;20040;-84
2022/08/07 08:40:25;;;;;;;2.53;1.58;;;;;;;31.90;29.39;100551.00;5011845;28;20204;-83
2022/08/07 08:42:56;;;;;;;4.10;2.08;;;;;;;29.65;31.37;100545.22;5011342;28;20422;-85
2022/08/07 08:45:31;;;;;;;3.03;1.80;;;;;;;28.09;33.64;100533.66;5010564;28;20484;-81
2022/08/07 08:48:29;;;;;;;3.50;2.08;;;;;;;26.46;36.52;100544.13;5025683;28;20133;-81
2022/08/07 08:51:01;;;;;;;5.03;1.88;;;;;;;26.06;37.48;100532.00;5000958;28;20116;-80
2022/08/07 08:53:43;;;;;;;2.78;1.85;;;;;;;24.50;39.52;100544.03;5020484;28;20037;-81
2022/08/07 08:56:19;;;;;;;2.53;1.70;;;;;;;24.30;40.61;100537.81;5013018;28;20453;-81
2022/08/07 08:59:03;;;;;;;3.50;1.90;;;;;;;24.49;40.18;100554.84;5030256;28;20026;-81
2022/08/07 09:01:49;;;;;;;3.53;1.88;;;;;;;24.06;41.30;100550.66;5033903;28;20057;-81
2022/08/07 09:04:28;;;;;;;2.67;2.00;;;;;;;23.80;40.53;100537.00;5042097;28;20033;-80
2022/08/07 09:07:11;;;;;;;3.25;1.95;;;;;;;23.98;39.72;100542.53;5040952;28;20397;-81
2022/08/07 09:09:44;;;;;;;2.28;1.60;;;;;;;24.14;39.79;100558.81;5049647;28;20459;-80
2022/08/07 09:12:36;;;;;;;1.52;1.42;;;;;;;24.07;41.09;100547.03;5032295;28;20103;-81
2022/08/07 09:15:22;;;;;;;1.80;1.70;;;;;;;24.13;40.34;100554.47;5045824;28;20036;-82
2022/08/07 09:17:56;;;;;;;3.30;1.90;;;;;;;24.01;38.99;100543.09;4960038;28;20580;-82
2022/08/07 09:20:31;;;;;;;2.72;1.77;;;;;;;23.82;38.37;100549.19;4959748;28;20039;-82
2022/08/07 09:23:19;;;;;;;1.52;1.40;;;;;;;23.78;39.74;100549.59;4960233;28;20889;-82
2022/08/07 09:26:06;;;;;;;3.55;1.98;;;;;;;23.94;41.00;100549.94;4943197;28;20121;-82
2022/08/07 09:28:38;;;;;;;3.40;2.00;;;;;;;23.58;40.16;100538.00;4960913;28;20035;-82
2022/08/07 09:31:22;;;;;;;14.38;1.90;;;;;;;23.32;40.65;100534.94;4952700;28;20077;-82
2022/08/07 09:33:56;;;;;;;2.60;1.80;;;;;;;23.12;40.67;100540.16;4966773;28;20507;-82
2022/08/07 09:36:30;;;;;;;1.88;1.63;;;;;;;23.08;40.76;100540.53;4970270;28;20395;-82
2022/08/07 09:39:14;;;;;;;2.20;1.60;;;;;;;23.24;41.19;100537.44;4970030;28;20129;-81
2022/08/07 09:42:09;;;;;;;1.98;1.73;;;;;;;23.37;39.94;100538.06;4953948;28;20042;-81
2022/08/07 09:44:48;;;;;;;1.58;1.48;;;;;;;22.96;40.34;100520.31;4916690;29;20036;-81
2022/08/07 09:47:22;;;;;;;2.08;1.67;;;;;;;23.04;41.38;100534.63;4916547;29;20028;-81
2022/08/07 09:50:24;;;;;;;2.25;1.65;;;;;;;22.88;40.49;100523.59;4915933;29;20040;-81
2022/08/07 09:52:59;;;;;;;4.05;2.08;;;;;;;22.93;40.94;100517.94;4878442;29;20037;-81
2022/08/07 09:55:29;;;;;;;2.33;1.88;;;;;;;23.12;40.75;100510.06;4918657;29;20039;-81
2022/08/07 09:58:19;;;;;;;2.65;1.58;;;;;;;23.25;40.21;100502.72;4934978;29;20051;-81
2022/08/07 10:01:25;;;;;;;1.75;1.65;;;;;;;23.11;40.81;100517.22;4934937;29;20032;-82
2022/08/07 10:04:12;;;;;;;3.03;1.90;;;;;;;22.86;40.53;100522.88;4935145;29;20048;-82
2022/08/07 10:07:02;;;;;;;2.97;2.00;;;;;;;22.77;40.67;100518.34;4919180;29;20114;-82
2022/08/07 10:09:39;;;;;;;2.10;1.77;;;;;;;22.38;41.63;100516.22;4935442;29;20439;-82
2022/08/07 10:12:17;;;;;;;2.92;2.13;;;;;;;22.59;41.83;100516.28;4919225;29;20118;-82
2022/08/07 10:15:17;;;;;;;2.75;1.60;;;;;;;22.78;42.05;100514.72;4934890;29;20079;-82
2022/08/07 10:17:55;;;;;;;1.80;1.70;;;;;;;23.15;41.50;100505.34;4844322;29;20101;-82
2022/08/07 10:20:58;;;;;;;1.70;1.60;;;;;;;23.38;41.16;100503.34;4860826;29;20045;-82
2022/08/07 10:23:44;;;;;;;1.95;1.65;;;;;;;23.68;41.03;100501.69;4893898;29;20047;-82
2022/08/07 10:26:28;;;;;;;2.53;1.50;;;;;;;23.74;39.00;100495.00;4878374;29;20048;-81
2022/08/07 10:29:12;;;;;;;3.13;2.00;;;;;;;23.72;39.55;100495.09;4887672;29;20122;-82
2022/08/07 10:32:12;;;;;;;1.60;1.50;;;;;;;23.96;39.48;100488.59;4934680;29;20048;-81
2022/08/07 10:34:46;;;;;;;4.10;1.65;;;;;;;24.38;39.17;100497.22;4934668;29;20127;-81
2022/08/07 10:37:26;;;;;;;2.35;1.60;;;;;;;24.31;37.60;100480.09;4934703;29;20031;-81
2022/08/07 10:40:09;;;;;;;4.43;1.70;;;;;;;24.33;38.79;100478.97;4918371;29;20138;-81
2022/08/07 10:42:45;;;;;;;3.60;1.52;;;;;;;24.32;38.94;100482.63;4934607;29;20028;-82
2022/08/07 10:45:16;;;;;;;2.03;1.75;;;;;;;24.19;38.60;100471.41;4918578;29;20138;-82
2022/08/07 10:48:07;;;;;;;2.72;1.77;;;;;;;24.09;37.76;100478.53;4934235;29;20035;-82
2022/08/07 10:50:41;;;;;;;3.25;1.80;;;;;;;23.94;38.43;100482.59;4897630;28;20041;-82
2022/08/07 10:53:26;;;;;;;3.10;1.77;;;;;;;23.75;38.18;100468.25;4954117;28;20041;-81
2022/08/07 10:56:31;;;;;;;3.42;1.80;;;;;;;23.73;38.68;100467.56;4955922;28;20039;-82
2022/08/07 10:59:24;;;;;;;2.85;1.77;;;;;;;23.83;38.50;100462.25;4972236;28;20027;-82
2022/08/07 11:01:52;;;;;;;2.20;1.58;;;;;;;23.92;38.90;100457.94;4955882;28;20074;-82
2022/08/07 11:04:51;;;;;;;3.00;1.63;;;;;;;23.95;39.85;100436.38;4955917;28;20593;-82
2022/08/07 11:07:25;;;;;;;2.20;1.80;;;;;;;23.98;39.56;100460.06;4972009;28;20058;-81
2022/08/07 11:09:57;;;;;;;2.55;1.58;;;;;;;23.88;40.22;100450.22;4972029;28;20465;-82
2022/08/07 11:12:46;;;;;;;4.75;1.70;;;;;;;24.08;39.24;100448.41;4968152;28;20027;-81
2022/08/07 11:15:20;;;;;;;1.33;1.30;;;;;;;23.84;39.21;100445.31;4971532;28;20380;-82
2022/08/07 11:17:57;;;;;;;2.33;1.80;;;;;;;23.85;38.99;100436.34;4971009;28;20037;-82
2022/08/07 11:20:34;;;;;;;4.88;1.73;;;;;;;24.02;39.38;100442.81;4971919;28;20046;-82
2022/08/07 11:23:13;;;;;;;2.65;1.90;;;;;;;24.01;40.18;100439.31;4955710;28;20438;-82
2022/08/07 11:25:43;;;;;;;3.90;2.15;;;;;;;23.86;39.55;100443.38;4957646;28;20039;-82
2022/08/07 11:28:24;;;;;;;3.85;1.95;;;;;;;23.63;39.38;100432.06;5018070;28;20033;-82
2022/08/07 11:30:49;;;;;;;;;;;;;;;23.27;40.58;100444.16;5015035;28;20548;-82
2022/08/07 11:33:25;;;;;;;2.00;1.70;;;;;;;23.27;40.52;100438.81;5035651;28;19963;-82
2022/08/07 11:36:20;;;;;;;2.00;1.50;;;;;;;23.28;40.65;100441.34;5014354;28;20029;-81
2022/08/07 11:39:00;;;;;;;2.15;1.95;;;;;;;23.30;40.68;100427.91;4990933;28;20057;-82
2022/08/07 11:41:31;;;;;;;2.47;1.95;;;;;;;23.26;41.30;100416.72;4990404;28;20088;-82
2022/08/07 11:44:28;;;;;;;2.45;1.90;;;;;;;23.40;40.61;100436.78;4974133;28;20086;-82
2022/08/07 11:47:09;;;;;;;2.53;1.83;;;;;;;23.10;40.14;100414.56;4974238;28;20030;-82
2022/08/07 11:49:50;;;;;;;2.83;1.70;;;;;;;23.31;40.55;100434.94;4990825;28;20437;-82